createdAt,value
2019-02-07T00:00:20.417Z,44.84
2019-02-07T00:02:49.272Z,46.09
2019-02-07T00:05:16.511Z,45.93
2019-02-07T00:07:43.400Z,46.02
2019-02-07T00:10:10.710Z,45.78
2019-02-07T00:12:37.596Z,45.55
2019-02-07T00:15:04.529Z,44.07
2019-02-07T00:17:31.851Z,44.67
2019-02-07T00:19:59.108Z,44.91
2019-02-07T00:22:27.059Z,45.73
2019-02-07T00:24:54.337Z,45.18
2019-02-07T00:27:21.573Z,45.24
2019-02-07T00:29:48.446Z,46.22
2019-02-07T00:32:15.773Z,45.78
2019-02-07T00:34:43.128Z,46.41
2019-02-07T00:37:10.061Z,46.65
2019-02-07T00:39:36.932Z,46.80
2019-02-07T00:42:03.894Z,45.33
2019-02-07T00:44:30.773Z,45.03
2019-02-07T00:46:57.705Z,45.95
2019-02-07T00:49:24.921Z,46.22
2019-02-07T00:51:51.811Z,47.29
2019-02-07T00:54:19.126Z,47.66
2019-02-07T00:56:46.434Z,47.61
2019-02-07T00:59:13.373Z,48.46
2019-02-07T01:01:40.313Z,47.67
2019-02-07T01:04:07.201Z,46.85
2019-02-07T01:06:34.152Z,46.08
2019-02-07T01:09:01.410Z,45.82
2019-02-07T01:11:29.957Z,46.65
2019-02-07T01:13:57.170Z,46.50
2019-02-07T01:16:24.106Z,45.55
2019-02-07T01:18:51.344Z,44.78
2019-02-07T01:21:18.583Z,44.81
2019-02-07T01:23:45.464Z,45.05
2019-02-07T01:26:12.482Z,44.61
2019-02-07T01:28:40.030Z,44.82
2019-02-07T01:31:06.909Z,45.21
2019-02-07T01:33:34.137Z,44.75
2019-02-07T01:36:01.085Z,43.19
2019-02-07T01:38:28.066Z,43.70
2019-02-07T01:40:55.002Z,43.75
2019-02-07T01:43:22.020Z,43.67
2019-02-07T01:45:49.266Z,43.38
2019-02-07T01:48:16.164Z,44.00
2019-02-07T01:50:43.477Z,45.05
2019-02-07T01:53:10.438Z,46.75
2019-02-07T01:55:37.370Z,47.91
2019-02-07T01:58:04.323Z,48.21
2019-02-07T02:00:31.556Z,48.14
2019-02-07T02:02:58.433Z,47.72
2019-02-07T02:05:26.199Z,49.13
2019-02-07T02:07:54.221Z,48.32
2019-02-07T02:10:21.171Z,46.82
2019-02-07T02:12:48.430Z,46.59
2019-02-07T02:15:24.058Z,47.51
2019-02-07T02:17:44.169Z,47.83
2019-02-07T02:20:11.325Z,48.12
2019-02-07T02:22:38.682Z,48.01
2019-02-07T02:25:05.624Z,48.12
2019-02-07T02:27:32.566Z,47.96
2019-02-07T02:29:59.517Z,48.90
2019-02-07T02:32:26.399Z,48.44
2019-02-07T02:34:53.622Z,48.37
2019-02-07T02:37:20.557Z,48.26
2019-02-07T02:39:47.706Z,45.79
2019-02-07T02:42:14.961Z,46.54
2019-02-07T02:44:41.937Z,46.33
2019-02-07T02:47:08.880Z,46.68
2019-02-07T02:49:35.823Z,47.46
2019-02-07T02:52:03.152Z,47.65
2019-02-07T02:54:30.311Z,48.16
2019-02-07T02:56:57.275Z,48.26
2019-02-07T02:59:24.593Z,48.41
2019-02-07T03:01:51.484Z,48.25
2019-02-07T03:04:18.424Z,47.57
2019-02-07T03:06:45.359Z,46.32
2019-02-07T03:09:13.369Z,46.61
2019-02-07T03:11:40.253Z,45.59
2019-02-07T03:14:07.186Z,45.85
2019-02-07T03:16:34.117Z,46.41
2019-02-07T03:19:01.073Z,46.42
2019-02-07T03:21:27.988Z,46.36
2019-02-07T03:23:55.187Z,46.63
2019-02-07T03:26:22.482Z,45.92
2019-02-07T03:28:49.429Z,46.01
2019-02-07T03:31:16.378Z,46.86
2019-02-07T03:33:43.361Z,47.22
2019-02-07T03:36:10.943Z,47.07
2019-02-07T03:38:37.886Z,48.75
2019-02-07T03:41:04.839Z,48.14
2019-02-07T03:43:31.702Z,48.38
2019-02-07T03:46:03.020Z,48.21
2019-02-07T03:48:27.485Z,47.69
2019-02-07T03:50:55.119Z,47.37
2019-02-07T03:53:22.707Z,46.93
2019-02-07T03:55:49.650Z,46.63
2019-02-07T03:58:16.606Z,47.17
2019-02-07T04:00:43.897Z,46.90
2019-02-07T04:03:10.839Z,47.18
2019-02-07T04:05:37.817Z,47.24
2019-02-07T04:08:05.128Z,48.17
2019-02-07T04:10:32.265Z,48.03
2019-02-07T04:12:59.451Z,47.87
2019-02-07T04:15:26.712Z,46.55
2019-02-07T04:17:53.944Z,46.46
2019-02-07T04:20:21.287Z,46.04
2019-02-07T04:22:48.245Z,46.57
2019-02-07T04:25:15.271Z,46.83
2019-02-07T04:27:42.205Z,45.67
2019-02-07T04:30:09.245Z,46.74
2019-02-07T04:32:36.276Z,46.62
2019-02-07T04:35:04.530Z,46.63
2019-02-07T04:37:31.751Z,46.24
2019-02-07T04:39:59.014Z,45.46
2019-02-07T04:42:25.945Z,46.30
2019-02-07T04:44:53.381Z,46.79
2019-02-07T04:47:20.566Z,47.55
2019-02-07T04:49:47.524Z,48.39
2019-02-07T04:52:14.868Z,47.75
2019-02-07T04:54:41.844Z,48.33
2019-02-07T04:57:08.892Z,48.70
2019-02-07T04:59:35.873Z,47.33
2019-02-07T05:02:03.172Z,47.32
2019-02-07T05:04:30.843Z,46.36
2019-02-07T05:06:57.827Z,45.89
2019-02-07T05:09:24.798Z,45.45
2019-02-07T05:11:51.678Z,46.08
2019-02-07T05:14:18.611Z,46.13
2019-02-07T05:16:45.547Z,47.04
2019-02-07T05:19:12.490Z,47.36
2019-02-07T05:21:39.781Z,47.60
2019-02-07T05:24:07.427Z,46.93
2019-02-07T05:26:34.658Z,47.43
2019-02-07T05:29:01.526Z,46.95
2019-02-07T05:31:28.397Z,46.97
2019-02-07T05:33:55.341Z,47.24
2019-02-07T05:36:22.286Z,48.13
2019-02-07T05:38:49.493Z,48.22
2019-02-07T05:41:16.873Z,48.00
2019-02-07T05:43:43.898Z,49.21
2019-02-07T05:46:10.777Z,48.33
2019-02-07T05:48:37.655Z,48.94
2019-02-07T05:51:04.603Z,49.39
2019-02-07T05:53:31.575Z,48.32
2019-02-07T05:55:58.538Z,48.62
2019-02-07T05:58:25.891Z,49.83
2019-02-07T06:00:53.059Z,49.88
2019-02-07T06:03:20.063Z,49.15
2019-02-07T06:05:47.350Z,49.01
2019-02-07T06:08:14.328Z,48.63
2019-02-07T06:10:41.268Z,48.08
2019-02-07T06:13:08.742Z,48.37
2019-02-07T06:15:35.670Z,47.98
2019-02-07T06:18:03.237Z,47.76
2019-02-07T06:20:30.571Z,48.09
2019-02-07T06:22:57.527Z,47.74
2019-02-07T06:25:24.731Z,47.30
2019-02-07T06:27:52.025Z,46.18
2019-02-07T06:30:18.963Z,44.06
2019-02-07T06:32:46.186Z,43.13
2019-02-07T06:35:13.125Z,42.17
2019-02-07T06:37:40.003Z,42.26
2019-02-07T06:40:06.891Z,43.08
2019-02-07T06:42:33.850Z,43.50
2019-02-07T06:45:01.121Z,43.54
2019-02-07T06:47:27.997Z,44.02
2019-02-07T06:49:55.230Z,44.50
2019-02-07T06:52:22.467Z,43.21
2019-02-07T06:54:50.138Z,44.08
2019-02-07T06:57:17.171Z,45.22
2019-02-07T06:59:44.168Z,44.04
2019-02-07T07:02:11.053Z,44.14
2019-02-07T07:04:38.323Z,43.80
2019-02-07T07:07:05.306Z,44.85
2019-02-07T07:09:33.783Z,45.51
2019-02-07T07:12:00.746Z,45.52
2019-02-07T07:14:27.677Z,45.93
2019-02-07T07:16:54.677Z,45.35
2019-02-07T07:19:21.557Z,45.44
2019-02-07T07:21:48.702Z,45.14
2019-02-07T07:24:15.935Z,46.18
2019-02-07T07:26:42.913Z,46.10
2019-02-07T07:29:10.153Z,45.15
2019-02-07T07:31:38.317Z,44.89
2019-02-07T07:34:05.565Z,44.51
2019-02-07T07:36:32.558Z,43.53
2019-02-07T07:38:59.500Z,42.53
2019-02-07T07:41:26.851Z,42.08
2019-02-07T07:43:53.792Z,42.09
2019-02-07T07:46:21.053Z,43.48
2019-02-07T07:48:48.031Z,43.49
2019-02-07T07:51:15.301Z,43.19
2019-02-07T07:53:42.228Z,42.46
2019-02-07T07:56:09.500Z,42.04
2019-02-07T07:58:36.773Z,41.52
2019-02-07T08:01:04.005Z,42.04
2019-02-07T08:03:31.746Z,43.21
2019-02-07T08:05:58.664Z,42.03
2019-02-07T08:08:25.968Z,42.45
2019-02-07T08:10:52.855Z,42.21
2019-02-07T08:13:19.778Z,42.59
2019-02-07T08:15:46.710Z,41.60
2019-02-07T08:18:13.662Z,41.78
2019-02-07T08:20:42.426Z,42.45
2019-02-07T08:23:10.259Z,41.84
2019-02-07T08:25:37.464Z,43.03
2019-02-07T08:28:04.415Z,41.73
2019-02-07T08:30:36.504Z,43.09
2019-02-07T08:33:00.253Z,45.69
2019-02-07T08:35:27.494Z,46.77
2019-02-07T08:37:58.038Z,47.01
2019-02-07T08:40:22.998Z,46.46
2019-02-07T08:42:49.934Z,46.63
2019-02-07T08:45:16.881Z,45.18
2019-02-07T08:47:44.174Z,45.29
2019-02-07T08:50:11.428Z,45.00
2019-02-07T08:52:38.361Z,45.53
2019-02-07T08:55:05.299Z,44.47
2019-02-07T08:57:32.276Z,43.45
2019-02-07T08:59:59.249Z,43.34
2019-02-07T09:02:26.230Z,44.67
2019-02-07T09:04:53.124Z,44.11
2019-02-07T09:07:20.358Z,46.07
2019-02-07T09:09:50.678Z,45.96
2019-02-07T09:12:17.882Z,45.47
2019-02-07T09:14:45.223Z,46.26
2019-02-07T09:17:14.470Z,45.92
2019-02-07T09:19:41.062Z,46.54
2019-02-07T09:22:08.388Z,44.91
2019-02-07T09:27:10.473Z,45.09
2019-02-07T09:29:37.518Z,44.52
2019-02-07T09:32:04.760Z,45.48
2019-02-07T09:34:32.010Z,47.05
2019-02-07T09:36:59.161Z,46.80
2019-02-07T09:39:26.163Z,46.89
2019-02-07T09:41:53.034Z,47.06
2019-02-07T09:44:19.980Z,48.16
2019-02-07T09:46:47.576Z,48.19
2019-02-07T09:49:14.810Z,48.75
2019-02-07T09:51:41.784Z,47.21
2019-02-07T09:54:08.649Z,47.35
2019-02-07T09:56:35.636Z,45.33
2019-02-07T09:59:03.526Z,47.67
2019-02-07T10:01:30.871Z,49.98
2019-02-07T10:03:58.113Z,49.08
2019-02-07T10:06:24.981Z,48.54
2019-02-07T10:08:51.896Z,49.06
2019-02-07T10:11:19.166Z,47.80
2019-02-07T10:13:46.117Z,47.92
2019-02-07T10:16:13.368Z,47.34
2019-02-07T10:18:40.634Z,47.55
2019-02-07T10:21:07.586Z,47.36
2019-02-07T10:23:34.934Z,48.16
2019-02-07T10:26:02.306Z,47.44
2019-02-07T10:28:30.351Z,47.94
2019-02-07T10:30:57.296Z,46.65
2019-02-07T10:33:24.245Z,48.31
2019-02-07T10:35:51.215Z,49.55
2019-02-07T10:38:18.555Z,49.61
2019-02-07T10:40:45.883Z,50.21
2019-02-07T10:43:12.906Z,49.12
2019-02-07T10:45:40.097Z,48.25
2019-02-07T10:48:07.353Z,48.76
2019-02-07T10:50:34.239Z,46.95
2019-02-07T10:53:01.218Z,48.82
2019-02-07T10:55:28.594Z,48.73
2019-02-07T10:57:55.468Z,46.92
2019-02-07T11:00:22.409Z,46.66
2019-02-07T11:02:49.366Z,47.74
2019-02-07T11:05:16.538Z,46.90
2019-02-07T11:07:43.848Z,45.86
2019-02-07T11:10:11.113Z,46.25
2019-02-07T11:12:38.540Z,46.68
2019-02-07T11:15:05.497Z,47.00
2019-02-07T11:17:32.756Z,46.89
2019-02-07T11:19:59.769Z,46.53
2019-02-07T11:22:26.749Z,45.92
2019-02-07T11:24:54.201Z,44.44
2019-02-07T11:27:21.194Z,43.57
2019-02-07T11:29:48.061Z,43.72
2019-02-07T11:32:14.966Z,44.51
2019-02-07T11:34:46.098Z,45.32
2019-02-07T11:37:13.442Z,44.29
2019-02-07T11:39:40.376Z,44.10
2019-02-07T11:42:07.333Z,43.82
2019-02-07T11:44:34.676Z,43.51
2019-02-07T11:47:05.620Z,45.57
2019-02-07T11:49:30.761Z,44.69
2019-02-07T11:51:57.848Z,44.85
2019-02-07T11:54:24.791Z,43.95
2019-02-07T11:56:51.758Z,45.03
2019-02-07T11:59:18.810Z,45.00
2019-02-07T12:01:45.804Z,44.64
2019-02-07T12:04:12.792Z,45.13
2019-02-07T12:06:39.759Z,44.80
2019-02-07T12:09:06.714Z,45.31
2019-02-07T12:11:34.288Z,44.40
2019-02-07T12:14:01.353Z,44.40
2019-02-07T12:16:28.319Z,43.28
2019-02-07T12:18:55.233Z,43.49
2019-02-07T12:21:22.145Z,43.87
2019-02-07T12:23:49.139Z,43.73
2019-02-07T12:26:16.362Z,43.42
2019-02-07T12:28:43.360Z,44.36
2019-02-07T12:31:10.278Z,43.96
2019-02-07T12:33:37.688Z,44.05
2019-02-07T12:36:04.666Z,43.44
2019-02-07T12:38:32.028Z,44.51
2019-02-07T12:41:00.303Z,45.54
2019-02-07T12:43:30.139Z,45.74
2019-02-07T12:45:57.108Z,44.60
2019-02-07T12:48:24.372Z,44.33
2019-02-07T12:50:51.827Z,45.33
2019-02-07T12:53:18.964Z,45.58
2019-02-07T12:55:52.191Z,45.06
2019-02-07T12:58:14.429Z,45.54
2019-02-07T13:00:41.975Z,46.13
2019-02-07T13:03:08.917Z,45.93
2019-02-07T13:05:35.900Z,46.26
2019-02-07T13:08:03.232Z,45.54
2019-02-07T13:10:30.178Z,43.80
2019-02-07T13:12:57.140Z,44.58
2019-02-07T13:15:24.466Z,45.48
2019-02-07T13:17:52.278Z,44.61
2019-02-07T13:20:19.852Z,44.96
2019-02-07T13:22:46.867Z,45.45
2019-02-07T13:25:13.738Z,45.82
2019-02-07T13:27:40.637Z,45.54
2019-02-07T13:30:07.898Z,45.29
2019-02-07T13:32:34.911Z,46.30
2019-02-07T13:35:02.156Z,46.35
2019-02-07T13:37:34.667Z,45.80
2019-02-07T13:40:01.699Z,46.00
2019-02-07T13:42:29.003Z,46.29
2019-02-07T13:44:55.961Z,46.01
2019-02-07T13:47:23.105Z,45.25
2019-02-07T13:49:52.015Z,46.57
2019-02-07T13:52:19.397Z,47.48
2019-02-07T13:54:46.304Z,48.38
2019-02-07T13:57:13.617Z,49.32
2019-02-07T13:59:40.910Z,50.16
2019-02-07T14:02:08.234Z,50.24
2019-02-07T14:04:35.481Z,50.37
2019-02-07T14:07:02.712Z,48.25
2019-02-07T14:09:30.043Z,48.86
2019-02-07T14:11:57.067Z,49.39
2019-02-07T14:14:24.275Z,48.39
2019-02-07T14:16:51.361Z,48.14
2019-02-07T14:19:18.678Z,46.77
2019-02-07T14:21:45.643Z,46.79
2019-02-07T14:24:13.089Z,46.36
2019-02-07T14:26:40.315Z,45.82
2019-02-07T14:29:07.235Z,47.08
2019-02-07T14:31:34.189Z,46.51
2019-02-07T14:34:01.620Z,47.32
2019-02-07T14:36:29.040Z,47.75
2019-02-07T14:38:56.000Z,48.77
2019-02-07T14:41:23.489Z,49.15
2019-02-07T14:43:50.744Z,47.84
2019-02-07T14:46:17.975Z,48.71
2019-02-07T14:48:45.281Z,47.80
2019-02-07T14:51:12.290Z,47.59
2019-02-07T14:53:39.221Z,48.16
2019-02-07T14:56:06.433Z,48.06
2019-02-07T14:58:33.366Z,48.90
2019-02-07T15:01:00.643Z,48.89
2019-02-07T15:03:27.795Z,48.55
2019-02-07T15:05:55.049Z,48.56
2019-02-07T15:08:22.390Z,48.57
2019-02-07T15:10:49.338Z,48.76
2019-02-07T15:13:16.307Z,46.80
2019-02-07T15:15:43.266Z,48.52
2019-02-07T15:18:10.488Z,48.24
2019-02-07T15:20:38.481Z,48.96
2019-02-07T15:23:05.714Z,47.82
2019-02-07T15:25:32.590Z,49.15
2019-02-07T15:27:59.917Z,50.73
2019-02-07T15:30:27.276Z,52.25
2019-02-07T15:32:54.516Z,51.39
2019-02-07T15:35:21.771Z,50.65
2019-02-07T15:37:48.759Z,50.85
2019-02-07T15:40:16.279Z,51.69
2019-02-07T15:42:43.234Z,50.86
2019-02-07T15:45:10.252Z,47.81
2019-02-07T15:47:37.218Z,48.86
2019-02-07T15:50:04.579Z,49.26
2019-02-07T15:52:31.961Z,49.09
2019-02-07T15:54:58.888Z,50.41
2019-02-07T15:57:26.323Z,51.22
2019-02-07T15:59:53.646Z,49.47
2019-02-07T16:02:20.627Z,48.91
2019-02-07T16:04:47.649Z,51.90
2019-02-07T16:07:14.656Z,53.44
2019-02-07T16:09:41.644Z,53.93
2019-02-07T16:12:08.635Z,55.78
2019-02-07T16:14:35.857Z,54.36
2019-02-07T16:17:03.264Z,53.71
2019-02-07T16:19:30.177Z,54.99
2019-02-07T16:21:57.118Z,54.82
2019-02-07T16:24:24.395Z,55.23
2019-02-07T16:26:51.335Z,53.79
2019-02-07T16:29:18.558Z,54.83
2019-02-07T16:31:45.834Z,54.34
2019-02-07T16:34:14.572Z,54.54
2019-02-07T16:36:41.774Z,54.83
2019-02-07T16:39:09.832Z,53.99
2019-02-07T16:41:36.867Z,53.00
2019-02-07T16:44:04.154Z,54.47
2019-02-07T16:46:31.108Z,55.15
2019-02-07T16:48:58.437Z,54.52
2019-02-07T16:51:26.194Z,56.71
2019-02-07T16:53:53.631Z,55.42
2019-02-07T16:56:20.810Z,55.05
2019-02-07T16:58:47.788Z,55.37
2019-02-07T17:01:15.128Z,57.24
2019-02-07T17:03:42.133Z,56.65
2019-02-07T17:06:09.098Z,54.28
2019-02-07T17:08:36.053Z,56.46
2019-02-07T17:11:04.342Z,55.95
2019-02-07T17:13:31.715Z,57.56
2019-02-07T17:15:58.675Z,57.18
2019-02-07T17:18:26.003Z,56.37
2019-02-07T17:20:52.939Z,56.06
2019-02-07T17:23:20.186Z,53.85
2019-02-07T17:25:47.517Z,52.66
2019-02-07T17:28:15.014Z,55.52
2019-02-07T17:30:42.344Z,53.03
2019-02-07T17:33:09.334Z,52.47
2019-02-07T17:35:36.240Z,55.20
2019-02-07T17:38:03.219Z,56.08
2019-02-07T17:40:30.184Z,54.90
2019-02-07T17:42:57.219Z,55.05
2019-02-07T17:45:24.430Z,54.10
2019-02-07T17:47:51.358Z,53.55
2019-02-07T17:50:18.663Z,56.33
2019-02-07T17:52:46.714Z,57.60
2019-02-07T17:55:13.981Z,56.91
2019-02-07T17:57:41.456Z,57.86
2019-02-07T18:00:08.426Z,56.93
2019-02-07T18:02:35.804Z,57.23
2019-02-07T18:05:03.289Z,57.74
2019-02-07T18:07:30.263Z,55.42
2019-02-07T18:09:57.687Z,55.14
2019-02-07T18:12:24.926Z,54.21
2019-02-07T18:14:53.498Z,54.13
2019-02-07T18:17:20.491Z,52.77
2019-02-07T18:19:47.730Z,51.51
2019-02-07T18:22:15.104Z,52.49
2019-02-07T18:24:42.766Z,52.99
2019-02-07T18:27:10.100Z,53.21
2019-02-07T18:29:37.066Z,53.84
2019-02-07T18:32:04.045Z,53.63
2019-02-07T18:34:34.182Z,54.33
2019-02-07T18:37:04.100Z,54.77
2019-02-07T18:39:31.435Z,53.43
2019-02-07T18:41:58.787Z,51.23
2019-02-07T18:44:25.738Z,49.74
2019-02-07T18:46:53.075Z,51.99
2019-02-07T18:49:22.036Z,52.38
2019-02-07T18:51:49.223Z,52.88
2019-02-07T18:54:17.177Z,53.57
2019-02-07T18:56:44.435Z,52.67
2019-02-07T18:59:11.905Z,50.28
2019-02-07T19:01:39.251Z,50.63
2019-02-07T19:04:06.235Z,53.96
2019-02-07T19:06:33.493Z,52.54
2019-02-07T19:09:00.447Z,53.68
2019-02-07T19:11:29.093Z,55.74
2019-02-07T19:13:57.399Z,55.94
2019-02-07T19:16:27.323Z,56.33
2019-02-07T19:18:54.000Z,54.00
2019-02-07T19:21:21.074Z,53.41
2019-02-07T19:23:48.628Z,53.67
2019-02-07T19:26:15.673Z,56.13
2019-02-07T19:28:46.434Z,56.35
2019-02-07T19:31:13.469Z,56.73
2019-02-07T19:33:41.016Z,54.58
2019-02-07T19:36:08.344Z,53.41
2019-02-07T19:38:37.390Z,51.13
2019-02-07T19:41:05.972Z,50.30
2019-02-07T19:43:33.013Z,51.30
2019-02-07T19:46:01.834Z,51.63
2019-02-07T19:48:28.867Z,51.91
2019-02-07T19:50:56.481Z,52.65
2019-02-07T19:53:23.462Z,52.80
2019-02-07T19:55:50.781Z,52.88
2019-02-07T19:58:18.311Z,51.35
2019-02-07T20:00:45.688Z,51.37
2019-02-07T20:03:12.657Z,53.22
2019-02-07T20:05:40.023Z,51.10
2019-02-07T20:08:07.423Z,52.15
2019-02-07T20:10:35.857Z,49.80
2019-02-07T20:13:02.833Z,50.24
2019-02-07T20:15:29.874Z,50.76
2019-02-07T20:17:59.767Z,49.72
2019-02-07T20:20:25.976Z,50.75
2019-02-07T20:22:53.304Z,50.24
2019-02-07T20:25:21.684Z,48.23
2019-02-07T20:27:48.751Z,49.88
2019-02-07T20:30:16.412Z,49.49
2019-02-07T20:32:43.438Z,49.94
2019-02-07T20:35:11.676Z,50.33
2019-02-07T20:37:38.977Z,51.18
2019-02-07T20:40:08.541Z,51.57
2019-02-07T20:42:35.609Z,51.57
2019-02-07T20:45:04.005Z,50.59
2019-02-07T20:47:31.693Z,49.48
2019-02-07T20:49:59.035Z,49.90
2019-02-07T20:52:27.381Z,49.98
2019-02-07T20:54:54.774Z,51.40
2019-02-07T20:57:21.748Z,51.81
2019-02-07T20:59:49.175Z,51.97
2019-02-07T21:02:16.280Z,51.48
2019-02-07T21:04:43.225Z,52.10
2019-02-07T21:07:10.189Z,52.30
2019-02-07T21:09:37.572Z,52.02
2019-02-07T21:12:04.958Z,52.61
2019-02-07T21:14:32.210Z,52.45
2019-02-07T21:16:59.171Z,51.87
2019-02-07T21:19:26.465Z,52.08
2019-02-07T21:21:53.845Z,50.20
2019-02-07T21:24:20.810Z,49.19
2019-02-07T21:26:47.818Z,49.96
2019-02-07T21:29:15.482Z,49.69
2019-02-07T21:31:42.734Z,50.04
2019-02-07T21:34:11.114Z,49.16
2019-02-07T21:36:38.153Z,49.37
2019-02-07T21:39:05.492Z,50.47
2019-02-07T21:41:34.251Z,49.95
2019-02-07T21:44:01.750Z,49.00
2019-02-07T21:46:28.859Z,49.76
2019-02-07T21:48:56.577Z,50.10
2019-02-07T21:51:23.544Z,50.05
2019-02-07T21:53:50.612Z,49.05
2019-02-07T21:56:17.546Z,49.95
2019-02-07T21:58:44.553Z,50.16
2019-02-07T22:01:12.578Z,50.49
2019-02-07T22:03:39.639Z,51.09
2019-02-07T22:06:06.876Z,50.63
2019-02-07T22:08:35.120Z,49.78
2019-02-07T22:11:02.376Z,48.81
2019-02-07T22:13:29.310Z,48.81
2019-02-07T22:15:56.561Z,49.95
2019-02-07T22:18:23.814Z,49.60
2019-02-07T22:20:50.782Z,49.67
2019-02-07T22:23:17.795Z,49.18
2019-02-07T22:25:45.068Z,49.84
2019-02-07T22:28:12.330Z,49.05
2019-02-07T22:30:39.563Z,48.68
2019-02-07T22:33:06.523Z,50.78
2019-02-07T22:35:33.504Z,50.10
2019-02-07T22:38:00.456Z,50.28
2019-02-07T22:40:28.676Z,48.99
2019-02-07T22:42:56.052Z,49.86
2019-02-07T22:45:23.407Z,50.58
2019-02-07T22:47:50.361Z,52.34
2019-02-07T22:50:17.578Z,53.63
2019-02-07T22:52:44.585Z,51.22
2019-02-07T22:55:11.542Z,51.76
2019-02-07T22:57:38.514Z,51.02
2019-02-07T23:00:05.796Z,52.71
2019-02-07T23:02:33.179Z,53.66
2019-02-07T23:05:00.442Z,54.65
2019-02-07T23:07:27.404Z,53.58
2019-02-07T23:09:54.814Z,54.78
2019-02-07T23:12:21.793Z,55.40
2019-02-07T23:14:48.800Z,54.12
2019-02-07T23:17:15.725Z,55.75
2019-02-07T23:19:43.293Z,54.65
2019-02-07T23:22:10.661Z,52.49
2019-02-07T23:24:37.722Z,53.47
2019-02-07T23:27:05.056Z,54.31
2019-02-07T23:29:32.055Z,53.58
2019-02-07T23:31:59.294Z,53.95
2019-02-07T23:34:26.196Z,53.54
2019-02-07T23:36:53.474Z,52.39
2019-02-07T23:39:20.447Z,53.52
2019-02-07T23:41:48.497Z,55.64
2019-02-07T23:44:15.452Z,55.58
2019-02-07T23:46:42.461Z,54.76
2019-02-07T23:49:10.489Z,52.99
2019-02-07T23:51:37.472Z,53.83
2019-02-07T23:54:04.949Z,54.81
2019-02-07T23:56:32.271Z,54.92
2019-02-07T23:58:59.178Z,54.29
